sensor_id;sensor_type;location;lat;lon;timestamp;P1;durP1;ratioP1;P2;durP2;ratioP2
42140;SDS011;27809;51.864;5.646;2023-05-07T00:00:56;6.95;;;5.03;;
42140;SDS011;27809;51.864;5.646;2023-05-07T00:03:21;5.60;;;4.60;;
42140;SDS011;27809;51.864;5.646;2023-05-07T00:05:47;6.45;;;3.75;;
42140;SDS011;27809;51.864;5.646;2023-05-07T00:08:13;5.32;;;4.45;;
42140;SDS011;27809;51.864;5.646;2023-05-07T00:10:38;6.97;;;4.22;;
42140;SDS011;27809;51.864;5.646;2023-05-07T00:13:04;7.05;;;4.60;;
42140;SDS011;27809;51.864;5.646;2023-05-07T00:15:29;7.05;;;4.28;;
42140;SDS011;27809;51.864;5.646;2023-05-07T00:17:55;6.00;;;4.22;;
42140;SDS011;27809;51.864;5.646;2023-05-07T00:20:20;6.30;;;4.22;;
42140;SDS011;27809;51.864;5.646;2023-05-07T00:22:46;4.65;;;4.10;;
42140;SDS011;27809;51.864;5.646;2023-05-07T00:25:11;6.38;;;5.15;;
42140;SDS011;27809;51.864;5.646;2023-05-07T00:27:37;5.80;;;4.82;;
42140;SDS011;27809;51.864;5.646;2023-05-07T00:30:02;9.43;;;4.60;;
42140;SDS011;27809;51.864;5.646;2023-05-07T00:32:28;5.63;;;3.88;;
42140;SDS011;27809;51.864;5.646;2023-05-07T00:34:54;8.73;;;4.78;;
42140;SDS011;27809;51.864;5.646;2023-05-07T00:37:20;6.53;;;5.30;;
42140;SDS011;27809;51.864;5.646;2023-05-07T00:39:46;6.95;;;4.45;;
42140;SDS011;27809;51.864;5.646;2023-05-07T00:42:11;11.60;;;4.75;;
42140;SDS011;27809;51.864;5.646;2023-05-07T00:44:36;6.47;;;4.10;;
42140;SDS011;27809;51.864;5.646;2023-05-07T00:47:03;5.90;;;4.38;;
42140;SDS011;27809;51.864;5.646;2023-05-07T00:49:34;6.07;;;4.57;;
42140;SDS011;27809;51.864;5.646;2023-05-07T00:52:07;6.90;;;4.53;;
42140;SDS011;27809;51.864;5.646;2023-05-07T00:54:35;18.38;;;4.65;;
42140;SDS011;27809;51.864;5.646;2023-05-07T00:57:02;5.82;;;4.65;;
42140;SDS011;27809;51.864;5.646;2023-05-07T00:59:28;6.32;;;4.45;;
42140;SDS011;27809;51.864;5.646;2023-05-07T01:01:56;5.45;;;4.57;;
42140;SDS011;27809;51.864;5.646;2023-05-07T01:04:22;5.53;;;4.93;;
42140;SDS011;27809;51.864;5.646;2023-05-07T01:06:47;6.50;;;4.47;;
42140;SDS011;27809;51.864;5.646;2023-05-07T01:09:13;7.05;;;4.32;;
42140;SDS011;27809;51.864;5.646;2023-05-07T01:11:39;7.00;;;4.85;;
42140;SDS011;27809;51.864;5.646;2023-05-07T01:14:05;8.18;;;5.90;;
42140;SDS011;27809;51.864;5.646;2023-05-07T01:16:32;5.60;;;4.18;;
42140;SDS011;27809;51.864;5.646;2023-05-07T01:18:58;6.65;;;5.72;;
42140;SDS011;27809;51.864;5.646;2023-05-07T01:21:25;5.75;;;4.00;;
42140;SDS011;27809;51.864;5.646;2023-05-07T01:23:52;8.98;;;3.50;;
42140;SDS011;27809;51.864;5.646;2023-05-07T01:26:18;4.30;;;3.15;;
42140;SDS011;27809;51.864;5.646;2023-05-07T01:28:44;5.32;;;2.90;;
42140;SDS011;27809;51.864;5.646;2023-05-07T01:31:10;13.30;;;3.58;;
42140;SDS011;27809;51.864;5.646;2023-05-07T01:33:38;4.18;;;3.40;;
42140;SDS011;27809;51.864;5.646;2023-05-07T01:36:07;5.85;;;4.40;;
42140;SDS011;27809;51.864;5.646;2023-05-07T01:38:36;8.82;;;4.40;;
42140;SDS011;27809;51.864;5.646;2023-05-07T01:41:02;9.73;;;5.18;;
42140;SDS011;27809;51.864;5.646;2023-05-07T01:43:28;6.35;;;4.32;;
42140;SDS011;27809;51.864;5.646;2023-05-07T01:45:55;4.82;;;3.83;;
42140;SDS011;27809;51.864;5.646;2023-05-07T01:48:22;5.57;;;3.42;;
42140;SDS011;27809;51.864;5.646;2023-05-07T01:50:49;5.68;;;3.75;;
42140;SDS011;27809;51.864;5.646;2023-05-07T01:53:15;10.32;;;4.28;;
42140;SDS011;27809;51.864;5.646;2023-05-07T01:55:40;5.70;;;4.32;;
42140;SDS011;27809;51.864;5.646;2023-05-07T01:58:06;6.72;;;4.57;;
42140;SDS011;27809;51.864;5.646;2023-05-07T02:00:31;6.22;;;4.70;;
42140;SDS011;27809;51.864;5.646;2023-05-07T02:02:57;6.05;;;4.57;;
42140;SDS011;27809;51.864;5.646;2023-05-07T02:05:23;8.45;;;4.50;;
42140;SDS011;27809;51.864;5.646;2023-05-07T02:07:49;5.65;;;4.80;;
42140;SDS011;27809;51.864;5.646;2023-05-07T02:10:14;6.03;;;4.53;;
42140;SDS011;27809;51.864;5.646;2023-05-07T02:12:40;5.68;;;3.75;;
42140;SDS011;27809;51.864;5.646;2023-05-07T02:15:05;6.13;;;4.10;;
42140;SDS011;27809;51.864;5.646;2023-05-07T02:17:31;4.80;;;4.03;;
42140;SDS011;27809;51.864;5.646;2023-05-07T02:19:58;6.72;;;4.55;;
42140;SDS011;27809;51.864;5.646;2023-05-07T02:22:23;6.13;;;4.38;;
42140;SDS011;27809;51.864;5.646;2023-05-07T02:24:49;5.35;;;4.82;;
42140;SDS011;27809;51.864;5.646;2023-05-07T02:27:14;5.40;;;4.70;;
42140;SDS011;27809;51.864;5.646;2023-05-07T02:29:40;7.25;;;4.75;;
42140;SDS011;27809;51.864;5.646;2023-05-07T02:32:05;8.27;;;5.45;;
42140;SDS011;27809;51.864;5.646;2023-05-07T02:34:31;5.53;;;4.75;;
42140;SDS011;27809;51.864;5.646;2023-05-07T02:36:56;8.35;;;6.30;;
42140;SDS011;27809;51.864;5.646;2023-05-07T02:39:22;16.25;;;6.95;;
42140;SDS011;27809;51.864;5.646;2023-05-07T02:41:48;8.50;;;5.57;;
42140;SDS011;27809;51.864;5.646;2023-05-07T02:44:13;9.27;;;5.90;;
42140;SDS011;27809;51.864;5.646;2023-05-07T02:46:39;8.45;;;6.28;;
42140;SDS011;27809;51.864;5.646;2023-05-07T02:49:04;6.93;;;5.45;;
42140;SDS011;27809;51.864;5.646;2023-05-07T02:51:30;11.95;;;6.90;;
42140;SDS011;27809;51.864;5.646;2023-05-07T02:53:56;7.47;;;6.18;;
42140;SDS011;27809;51.864;5.646;2023-05-07T02:56:22;9.63;;;7.53;;
42140;SDS011;27809;51.864;5.646;2023-05-07T02:58:47;9.85;;;7.03;;
42140;SDS011;27809;51.864;5.646;2023-05-07T03:01:13;11.23;;;7.85;;
42140;SDS011;27809;51.864;5.646;2023-05-07T03:03:39;12.18;;;9.52;;
42140;SDS011;27809;51.864;5.646;2023-05-07T03:06:05;10.30;;;7.32;;
42140;SDS011;27809;51.864;5.646;2023-05-07T03:08:31;13.70;;;8.55;;
42140;SDS011;27809;51.864;5.646;2023-05-07T03:10:57;13.50;;;8.50;;
42140;SDS011;27809;51.864;5.646;2023-05-07T03:13:23;16.15;;;9.43;;
42140;SDS011;27809;51.864;5.646;2023-05-07T03:15:48;12.55;;;8.23;;
42140;SDS011;27809;51.864;5.646;2023-05-07T03:18:14;12.57;;;8.88;;
42140;SDS011;27809;51.864;5.646;2023-05-07T03:20:40;9.65;;;7.72;;
42140;SDS011;27809;51.864;5.646;2023-05-07T03:23:05;13.60;;;9.55;;
42140;SDS011;27809;51.864;5.646;2023-05-07T03:25:31;17.42;;;10.55;;
42140;SDS011;27809;51.864;5.646;2023-05-07T03:27:57;16.25;;;10.18;;
42140;SDS011;27809;51.864;5.646;2023-05-07T03:30:23;16.63;;;11.23;;
42140;SDS011;27809;51.864;5.646;2023-05-07T03:32:49;21.80;;;11.90;;
42140;SDS011;27809;51.864;5.646;2023-05-07T03:35:15;15.00;;;11.32;;
42140;SDS011;27809;51.864;5.646;2023-05-07T03:37:40;16.48;;;10.93;;
42140;SDS011;27809;51.864;5.646;2023-05-07T03:40:06;18.20;;;11.75;;
42140;SDS011;27809;51.864;5.646;2023-05-07T03:42:33;24.73;;;13.73;;
42140;SDS011;27809;51.864;5.646;2023-05-07T03:44:58;20.30;;;12.50;;
42140;SDS011;27809;51.864;5.646;2023-05-07T03:47:24;21.60;;;12.95;;
42140;SDS011;27809;51.864;5.646;2023-05-07T03:49:49;22.80;;;12.43;;
42140;SDS011;27809;51.864;5.646;2023-05-07T03:52:17;18.48;;;12.68;;
42140;SDS011;27809;51.864;5.646;2023-05-07T03:54:47;20.10;;;12.70;;
42140;SDS011;27809;51.864;5.646;2023-05-07T03:57:13;16.98;;;12.13;;
42140;SDS011;27809;51.864;5.646;2023-05-07T03:59:38;23.65;;;13.00;;
42140;SDS011;27809;51.864;5.646;2023-05-07T04:02:04;15.85;;;11.30;;
42140;SDS011;27809;51.864;5.646;2023-05-07T04:04:29;18.27;;;11.98;;
42140;SDS011;27809;51.864;5.646;2023-05-07T04:06:57;17.17;;;12.15;;
42140;SDS011;27809;51.864;5.646;2023-05-07T04:09:24;17.48;;;11.43;;
42140;SDS011;27809;51.864;5.646;2023-05-07T04:11:50;24.13;;;12.00;;
42140;SDS011;27809;51.864;5.646;2023-05-07T04:14:15;18.30;;;12.07;;
42140;SDS011;27809;51.864;5.646;2023-05-07T04:16:41;16.65;;;11.05;;
42140;SDS011;27809;51.864;5.646;2023-05-07T04:19:06;19.95;;;12.15;;
42140;SDS011;27809;51.864;5.646;2023-05-07T04:21:32;19.55;;;12.82;;
42140;SDS011;27809;51.864;5.646;2023-05-07T04:23:57;15.70;;;11.30;;
42140;SDS011;27809;51.864;5.646;2023-05-07T04:26:23;20.10;;;12.63;;
42140;SDS011;27809;51.864;5.646;2023-05-07T04:28:49;17.45;;;11.90;;
42140;SDS011;27809;51.864;5.646;2023-05-07T04:31:15;16.52;;;12.13;;
42140;SDS011;27809;51.864;5.646;2023-05-07T04:33:41;20.63;;;12.77;;
42140;SDS011;27809;51.864;5.646;2023-05-07T04:36:06;19.52;;;11.52;;
42140;SDS011;27809;51.864;5.646;2023-05-07T04:38:32;19.80;;;12.80;;
42140;SDS011;27809;51.864;5.646;2023-05-07T04:41:04;19.55;;;12.02;;
42140;SDS011;27809;51.864;5.646;2023-05-07T04:45:56;17.65;;;11.63;;
42140;SDS011;27809;51.864;5.646;2023-05-07T04:48:21;20.10;;;12.80;;
42140;SDS011;27809;51.864;5.646;2023-05-07T04:50:47;21.00;;;12.27;;
42140;SDS011;27809;51.864;5.646;2023-05-07T04:53:13;21.75;;;12.25;;
42140;SDS011;27809;51.864;5.646;2023-05-07T04:55:39;19.77;;;12.95;;
42140;SDS011;27809;51.864;5.646;2023-05-07T04:58:04;19.35;;;12.65;;
42140;SDS011;27809;51.864;5.646;2023-05-07T05:00:30;18.58;;;13.80;;
42140;SDS011;27809;51.864;5.646;2023-05-07T05:02:56;19.10;;;12.52;;
42140;SDS011;27809;51.864;5.646;2023-05-07T05:05:22;20.85;;;12.77;;
42140;SDS011;27809;51.864;5.646;2023-05-07T05:07:47;20.42;;;13.65;;
42140;SDS011;27809;51.864;5.646;2023-05-07T05:10:13;19.77;;;12.52;;
42140;SDS011;27809;51.864;5.646;2023-05-07T05:12:38;19.92;;;13.25;;
42140;SDS011;27809;51.864;5.646;2023-05-07T05:15:04;19.02;;;12.98;;
42140;SDS011;27809;51.864;5.646;2023-05-07T05:17:30;19.70;;;13.68;;
42140;SDS011;27809;51.864;5.646;2023-05-07T05:19:56;35.28;;;13.32;;
42140;SDS011;27809;51.864;5.646;2023-05-07T05:22:21;18.35;;;13.57;;
42140;SDS011;27809;51.864;5.646;2023-05-07T05:24:47;19.27;;;14.35;;
42140;SDS011;27809;51.864;5.646;2023-05-07T05:27:12;19.80;;;13.23;;
42140;SDS011;27809;51.864;5.646;2023-05-07T05:29:38;19.05;;;11.77;;
42140;SDS011;27809;51.864;5.646;2023-05-07T05:32:03;21.60;;;13.52;;
42140;SDS011;27809;51.864;5.646;2023-05-07T05:34:29;18.55;;;13.88;;
42140;SDS011;27809;51.864;5.646;2023-05-07T05:36:54;18.80;;;13.85;;
42140;SDS011;27809;51.864;5.646;2023-05-07T05:39:20;19.98;;;12.90;;
42140;SDS011;27809;51.864;5.646;2023-05-07T05:41:47;21.10;;;14.68;;
42140;SDS011;27809;51.864;5.646;2023-05-07T05:44:12;18.50;;;13.82;;
42140;SDS011;27809;51.864;5.646;2023-05-07T05:46:38;18.98;;;13.68;;
42140;SDS011;27809;51.864;5.646;2023-05-07T05:49:03;21.55;;;13.25;;
42140;SDS011;27809;51.864;5.646;2023-05-07T05:51:29;21.40;;;14.15;;
42140;SDS011;27809;51.864;5.646;2023-05-07T05:53:55;18.42;;;12.90;;
42140;SDS011;27809;51.864;5.646;2023-05-07T05:56:21;16.55;;;12.55;;
42140;SDS011;27809;51.864;5.646;2023-05-07T05:58:46;19.63;;;13.90;;
42140;SDS011;27809;51.864;5.646;2023-05-07T06:01:12;1.13;;;0.60;;
42140;SDS011;27809;51.864;5.646;2023-05-07T06:03:37;15.98;;;10.88;;
42140;SDS011;27809;51.864;5.646;2023-05-07T06:06:03;17.27;;;12.20;;
42140;SDS011;27809;51.864;5.646;2023-05-07T06:08:28;19.30;;;11.02;;
42140;SDS011;27809;51.864;5.646;2023-05-07T06:10:55;17.05;;;11.98;;
42140;SDS011;27809;51.864;5.646;2023-05-07T06:13:20;16.83;;;12.15;;
42140;SDS011;27809;51.864;5.646;2023-05-07T06:15:46;19.60;;;11.38;;
42140;SDS011;27809;51.864;5.646;2023-05-07T06:18:11;20.23;;;12.82;;
42140;SDS011;27809;51.864;5.646;2023-05-07T06:20:37;19.42;;;12.25;;
42140;SDS011;27809;51.864;5.646;2023-05-07T06:23:02;21.85;;;12.13;;
42140;SDS011;27809;51.864;5.646;2023-05-07T06:25:28;22.55;;;13.50;;
42140;SDS011;27809;51.864;5.646;2023-05-07T06:27:53;21.40;;;13.27;;
42140;SDS011;27809;51.864;5.646;2023-05-07T06:30:19;20.00;;;12.95;;
42140;SDS011;27809;51.864;5.646;2023-05-07T06:32:44;25.13;;;14.32;;
42140;SDS011;27809;51.864;5.646;2023-05-07T06:35:10;16.75;;;12.00;;
42140;SDS011;27809;51.864;5.646;2023-05-07T06:37:35;21.02;;;14.55;;
42140;SDS011;27809;51.864;5.646;2023-05-07T06:40:03;23.42;;;12.90;;
42140;SDS011;27809;51.864;5.646;2023-05-07T06:42:30;20.63;;;12.32;;
42140;SDS011;27809;51.864;5.646;2023-05-07T06:44:55;18.27;;;11.85;;
42140;SDS011;27809;51.864;5.646;2023-05-07T06:47:21;21.48;;;13.57;;
42140;SDS011;27809;51.864;5.646;2023-05-07T06:49:46;20.83;;;12.23;;
42140;SDS011;27809;51.864;5.646;2023-05-07T06:52:12;18.80;;;11.85;;
42140;SDS011;27809;51.864;5.646;2023-05-07T06:54:37;19.98;;;13.80;;
42140;SDS011;27809;51.864;5.646;2023-05-07T06:57:03;18.05;;;11.15;;
42140;SDS011;27809;51.864;5.646;2023-05-07T06:59:28;17.48;;;12.60;;
42140;SDS011;27809;51.864;5.646;2023-05-07T07:01:54;16.60;;;11.23;;
42140;SDS011;27809;51.864;5.646;2023-05-07T07:04:19;14.75;;;11.05;;
42140;SDS011;27809;51.864;5.646;2023-05-07T07:06:47;21.55;;;13.02;;
42140;SDS011;27809;51.864;5.646;2023-05-07T07:09:13;16.67;;;10.55;;
42140;SDS011;27809;51.864;5.646;2023-05-07T07:11:38;18.33;;;11.25;;
42140;SDS011;27809;51.864;5.646;2023-05-07T07:14:04;25.27;;;12.32;;
42140;SDS011;27809;51.864;5.646;2023-05-07T07:16:30;16.23;;;10.65;;
42140;SDS011;27809;51.864;5.646;2023-05-07T07:18:56;18.15;;;10.65;;
42140;SDS011;27809;51.864;5.646;2023-05-07T07:21:21;17.80;;;10.70;;
42140;SDS011;27809;51.864;5.646;2023-05-07T07:23:47;20.40;;;13.05;;
42140;SDS011;27809;51.864;5.646;2023-05-07T07:26:12;14.80;;;10.18;;
42140;SDS011;27809;51.864;5.646;2023-05-07T07:28:44;19.33;;;11.48;;
42140;SDS011;27809;51.864;5.646;2023-05-07T07:33:36;17.52;;;10.00;;
42140;SDS011;27809;51.864;5.646;2023-05-07T07:36:02;15.15;;;10.27;;
42140;SDS011;27809;51.864;5.646;2023-05-07T07:38:27;11.57;;;9.02;;
42140;SDS011;27809;51.864;5.646;2023-05-07T07:40:53;12.57;;;8.82;;
42140;SDS011;27809;51.864;5.646;2023-05-07T07:43:18;15.02;;;8.80;;
42140;SDS011;27809;51.864;5.646;2023-05-07T07:45:44;14.15;;;10.68;;
42140;SDS011;27809;51.864;5.646;2023-05-07T07:48:10;15.65;;;9.18;;
42140;SDS011;27809;51.864;5.646;2023-05-07T07:50:36;14.73;;;8.90;;
42140;SDS011;27809;51.864;5.646;2023-05-07T07:53:01;14.90;;;9.82;;
42140;SDS011;27809;51.864;5.646;2023-05-07T07:55:27;11.23;;;8.50;;
42140;SDS011;27809;51.864;5.646;2023-05-07T07:57:53;13.13;;;8.38;;
42140;SDS011;27809;51.864;5.646;2023-05-07T08:00:18;2.65;;;1.45;;
42140;SDS011;27809;51.864;5.646;2023-05-07T08:02:44;12.52;;;8.52;;
42140;SDS011;27809;51.864;5.646;2023-05-07T08:05:10;12.93;;;8.32;;
42140;SDS011;27809;51.864;5.646;2023-05-07T08:07:35;12.40;;;8.50;;
42140;SDS011;27809;51.864;5.646;2023-05-07T08:10:01;10.38;;;7.57;;
42140;SDS011;27809;51.864;5.646;2023-05-07T08:12:27;10.88;;;7.47;;
42140;SDS011;27809;51.864;5.646;2023-05-07T08:14:52;9.88;;;7.63;;
42140;SDS011;27809;51.864;5.646;2023-05-07T08:17:18;8.30;;;6.53;;
42140;SDS011;27809;51.864;5.646;2023-05-07T08:19:44;15.80;;;8.27;;
42140;SDS011;27809;51.864;5.646;2023-05-07T08:22:09;12.40;;;7.72;;
42140;SDS011;27809;51.864;5.646;2023-05-07T08:24:36;11.43;;;7.50;;
42140;SDS011;27809;51.864;5.646;2023-05-07T08:27:01;11.68;;;8.40;;
42140;SDS011;27809;51.864;5.646;2023-05-07T08:29:27;11.77;;;8.20;;
42140;SDS011;27809;51.864;5.646;2023-05-07T08:31:52;13.15;;;7.40;;
42140;SDS011;27809;51.864;5.646;2023-05-07T08:34:18;12.27;;;8.13;;
42140;SDS011;27809;51.864;5.646;2023-05-07T08:36:44;13.05;;;9.02;;
42140;SDS011;27809;51.864;5.646;2023-05-07T08:39:11;11.90;;;8.57;;
42140;SDS011;27809;51.864;5.646;2023-05-07T08:41:37;11.38;;;8.15;;
42140;SDS011;27809;51.864;5.646;2023-05-07T08:44:03;9.52;;;7.18;;
42140;SDS011;27809;51.864;5.646;2023-05-07T08:46:36;11.32;;;7.95;;
42140;SDS011;27809;51.864;5.646;2023-05-07T08:49:01;13.07;;;7.97;;
42140;SDS011;27809;51.864;5.646;2023-05-07T08:51:27;9.10;;;7.28;;
42140;SDS011;27809;51.864;5.646;2023-05-07T08:53:53;10.43;;;7.65;;
42140;SDS011;27809;51.864;5.646;2023-05-07T08:56:18;8.88;;;7.13;;
42140;SDS011;27809;51.864;5.646;2023-05-07T08:58:45;10.52;;;8.00;;
42140;SDS011;27809;51.864;5.646;2023-05-07T09:01:14;11.00;;;8.20;;
42140;SDS011;27809;51.864;5.646;2023-05-07T09:03:42;4.38;;;1.98;;
42140;SDS011;27809;51.864;5.646;2023-05-07T09:06:10;7.03;;;2.58;;
42140;SDS011;27809;51.864;5.646;2023-05-07T09:08:35;6.50;;;4.78;;
42140;SDS011;27809;51.864;5.646;2023-05-07T09:11:01;15.05;;;3.42;;
42140;SDS011;27809;51.864;5.646;2023-05-07T09:13:28;8.00;;;6.18;;
42140;SDS011;27809;51.864;5.646;2023-05-07T09:15:54;12.80;;;5.30;;
42140;SDS011;27809;51.864;5.646;2023-05-07T09:18:20;8.63;;;1.33;;
42140;SDS011;27809;51.864;5.646;2023-05-07T09:20:45;5.18;;;2.08;;
42140;SDS011;27809;51.864;5.646;2023-05-07T09:23:11;6.85;;;1.60;;
42140;SDS011;27809;51.864;5.646;2023-05-07T09:25:37;4.25;;;1.55;;
42140;SDS011;27809;51.864;5.646;2023-05-07T09:28:03;2.67;;;1.25;;
42140;SDS011;27809;51.864;5.646;2023-05-07T09:30:31;7.63;;;1.67;;
42140;SDS011;27809;51.864;5.646;2023-05-07T09:33:00;3.38;;;2.05;;
42140;SDS011;27809;51.864;5.646;2023-05-07T09:35:27;3.03;;;1.65;;
42140;SDS011;27809;51.864;5.646;2023-05-07T09:37:53;4.30;;;1.80;;
42140;SDS011;27809;51.864;5.646;2023-05-07T09:40:25;6.68;;;3.03;;
42140;SDS011;27809;51.864;5.646;2023-05-07T09:42:52;5.80;;;2.53;;
42140;SDS011;27809;51.864;5.646;2023-05-07T09:45:27;8.48;;;2.65;;
42140;SDS011;27809;51.864;5.646;2023-05-07T09:47:54;5.45;;;2.60;;
42140;SDS011;27809;51.864;5.646;2023-05-07T09:50:22;3.97;;;1.88;;
42140;SDS011;27809;51.864;5.646;2023-05-07T09:52:52;6.05;;;4.10;;
42140;SDS011;27809;51.864;5.646;2023-05-07T09:55:20;5.13;;;3.30;;
42140;SDS011;27809;51.864;5.646;2023-05-07T09:57:46;8.40;;;4.07;;
42140;SDS011;27809;51.864;5.646;2023-05-07T10:00:15;9.15;;;4.60;;
42140;SDS011;27809;51.864;5.646;2023-05-07T10:02:42;8.60;;;4.15;;
42140;SDS011;27809;51.864;5.646;2023-05-07T10:05:13;6.05;;;2.92;;
42140;SDS011;27809;51.864;5.646;2023-05-07T10:07:40;4.55;;;3.33;;
42140;SDS011;27809;51.864;5.646;2023-05-07T10:10:06;6.40;;;3.45;;
42140;SDS011;27809;51.864;5.646;2023-05-07T10:12:32;3.72;;;2.25;;
42140;SDS011;27809;51.864;5.646;2023-05-07T10:15:04;5.30;;;1.52;;
42140;SDS011;27809;51.864;5.646;2023-05-07T10:17:35;2.22;;;1.83;;
42140;SDS011;27809;51.864;5.646;2023-05-07T10:20:02;5.47;;;2.13;;
42140;SDS011;27809;51.864;5.646;2023-05-07T10:22:29;3.65;;;2.33;;
42140;SDS011;27809;51.864;5.646;2023-05-07T10:25:02;5.68;;;2.08;;
42140;SDS011;27809;51.864;5.646;2023-05-07T10:27:28;5.32;;;2.03;;
42140;SDS011;27809;51.864;5.646;2023-05-07T10:32:30;10.27;;;2.58;;
42140;SDS011;27809;51.864;5.646;2023-05-07T10:35:02;4.50;;;1.58;;
42140;SDS011;27809;51.864;5.646;2023-05-07T10:37:31;4.80;;;1.77;;
42140;SDS011;27809;51.864;5.646;2023-05-07T10:39:57;5.97;;;2.05;;
42140;SDS011;27809;51.864;5.646;2023-05-07T10:42:23;2.03;;;1.25;;
42140;SDS011;27809;51.864;5.646;2023-05-07T10:44:49;4.47;;;2.10;;
42140;SDS011;27809;51.864;5.646;2023-05-07T10:47:15;2.90;;;1.70;;
42140;SDS011;27809;51.864;5.646;2023-05-07T10:52:16;3.60;;;1.38;;
42140;SDS011;27809;51.864;5.646;2023-05-07T10:54:43;2.55;;;1.33;;
42140;SDS011;27809;51.864;5.646;2023-05-07T10:57:51;3.47;;;1.60;;
42140;SDS011;27809;51.864;5.646;2023-05-07T11:00:01;5.97;;;1.33;;
42140;SDS011;27809;51.864;5.646;2023-05-07T11:05:28;3.70;;;1.17;;
42140;SDS011;27809;51.864;5.646;2023-05-07T11:07:55;2.50;;;0.95;;
42140;SDS011;27809;51.864;5.646;2023-05-07T11:10:22;2.50;;;1.30;;
42140;SDS011;27809;51.864;5.646;2023-05-07T11:12:49;3.15;;;1.63;;
42140;SDS011;27809;51.864;5.646;2023-05-07T11:15:16;2.25;;;1.25;;
42140;SDS011;27809;51.864;5.646;2023-05-07T11:18:02;4.38;;;0.95;;
42140;SDS011;27809;51.864;5.646;2023-05-07T11:20:44;2.88;;;1.98;;
42140;SDS011;27809;51.864;5.646;2023-05-07T11:26:02;2.80;;;0.80;;
42140;SDS011;27809;51.864;5.646;2023-05-07T11:28:36;2.70;;;1.33;;
42140;SDS011;27809;51.864;5.646;2023-05-07T11:31:02;2.25;;;1.40;;
42140;SDS011;27809;51.864;5.646;2023-05-07T11:33:29;1.77;;;0.95;;
42140;SDS011;27809;51.864;5.646;2023-05-07T11:35:55;4.68;;;1.20;;
42140;SDS011;27809;51.864;5.646;2023-05-07T11:38:22;2.30;;;1.65;;
42140;SDS011;27809;51.864;5.646;2023-05-07T11:40:55;3.80;;;1.48;;
42140;SDS011;27809;51.864;5.646;2023-05-07T11:43:21;2.47;;;1.20;;
42140;SDS011;27809;51.864;5.646;2023-05-07T11:45:48;2.15;;;1.05;;
42140;SDS011;27809;51.864;5.646;2023-05-07T11:48:14;3.92;;;1.23;;
42140;SDS011;27809;51.864;5.646;2023-05-07T11:50:53;4.50;;;1.02;;
42140;SDS011;27809;51.864;5.646;2023-05-07T11:53:26;5.80;;;1.42;;
42140;SDS011;27809;51.864;5.646;2023-05-07T11:55:52;3.78;;;1.00;;
42140;SDS011;27809;51.864;5.646;2023-05-07T11:58:22;5.78;;;1.30;;
42140;SDS011;27809;51.864;5.646;2023-05-07T12:00:49;3.50;;;1.42;;
42140;SDS011;27809;51.864;5.646;2023-05-07T12:03:15;3.30;;;1.67;;
42140;SDS011;27809;51.864;5.646;2023-05-07T12:05:41;3.00;;;1.60;;
42140;SDS011;27809;51.864;5.646;2023-05-07T12:08:06;2.63;;;1.23;;
42140;SDS011;27809;51.864;5.646;2023-05-07T12:10:32;7.65;;;2.35;;
42140;SDS011;27809;51.864;5.646;2023-05-07T12:12:58;6.93;;;2.38;;
42140;SDS011;27809;51.864;5.646;2023-05-07T12:15:23;2.50;;;1.17;;
42140;SDS011;27809;51.864;5.646;2023-05-07T12:17:49;2.85;;;0.82;;
42140;SDS011;27809;51.864;5.646;2023-05-07T12:20:15;6.38;;;2.03;;
42140;SDS011;27809;51.864;5.646;2023-05-07T12:22:41;4.43;;;2.13;;
42140;SDS011;27809;51.864;5.646;2023-05-07T12:25:08;4.03;;;1.40;;
42140;SDS011;27809;51.864;5.646;2023-05-07T12:27:36;4.90;;;1.65;;
42140;SDS011;27809;51.864;5.646;2023-05-07T12:30:03;5.28;;;2.90;;
42140;SDS011;27809;51.864;5.646;2023-05-07T12:32:28;5.93;;;2.40;;
42140;SDS011;27809;51.864;5.646;2023-05-07T12:34:54;4.15;;;2.55;;
42140;SDS011;27809;51.864;5.646;2023-05-07T12:37:26;7.38;;;3.03;;
42140;SDS011;27809;51.864;5.646;2023-05-07T12:40:04;6.30;;;2.58;;
42140;SDS011;27809;51.864;5.646;2023-05-07T12:42:38;5.38;;;2.75;;
42140;SDS011;27809;51.864;5.646;2023-05-07T12:45:11;6.05;;;3.05;;
42140;SDS011;27809;51.864;5.646;2023-05-07T12:47:38;5.40;;;3.78;;
42140;SDS011;27809;51.864;5.646;2023-05-07T12:50:06;4.70;;;4.13;;
42140;SDS011;27809;51.864;5.646;2023-05-07T12:52:33;6.75;;;4.80;;
42140;SDS011;27809;51.864;5.646;2023-05-07T12:55:04;6.32;;;5.43;;
42140;SDS011;27809;51.864;5.646;2023-05-07T12:57:32;8.52;;;5.40;;
42140;SDS011;27809;51.864;5.646;2023-05-07T13:00:09;6.72;;;5.05;;
42140;SDS011;27809;51.864;5.646;2023-05-07T13:02:38;9.07;;;5.25;;
42140;SDS011;27809;51.864;5.646;2023-05-07T13:05:05;11.07;;;6.00;;
42140;SDS011;27809;51.864;5.646;2023-05-07T13:07:31;7.70;;;5.03;;
42140;SDS011;27809;51.864;5.646;2023-05-07T13:09:56;8.55;;;6.18;;
42140;SDS011;27809;51.864;5.646;2023-05-07T13:12:22;8.15;;;6.38;;
42140;SDS011;27809;51.864;5.646;2023-05-07T13:14:47;10.13;;;6.53;;
42140;SDS011;27809;51.864;5.646;2023-05-07T13:17:13;11.52;;;6.97;;
42140;SDS011;27809;51.864;5.646;2023-05-07T13:19:38;9.25;;;7.43;;
42140;SDS011;27809;51.864;5.646;2023-05-07T13:22:05;15.73;;;7.28;;
42140;SDS011;27809;51.864;5.646;2023-05-07T13:24:30;10.50;;;7.28;;
42140;SDS011;27809;51.864;5.646;2023-05-07T13:26:56;12.23;;;8.43;;
42140;SDS011;27809;51.864;5.646;2023-05-07T13:29:21;10.00;;;7.85;;
42140;SDS011;27809;51.864;5.646;2023-05-07T13:31:53;11.43;;;8.15;;
42140;SDS011;27809;51.864;5.646;2023-05-07T13:34:19;10.30;;;7.72;;
42140;SDS011;27809;51.864;5.646;2023-05-07T13:36:45;11.40;;;8.05;;
42140;SDS011;27809;51.864;5.646;2023-05-07T13:39:10;13.35;;;8.63;;
42140;SDS011;27809;51.864;5.646;2023-05-07T13:41:36;11.57;;;9.10;;
42140;SDS011;27809;51.864;5.646;2023-05-07T13:44:01;10.18;;;7.80;;
42140;SDS011;27809;51.864;5.646;2023-05-07T13:46:27;9.52;;;7.43;;
42140;SDS011;27809;51.864;5.646;2023-05-07T13:48:52;11.45;;;8.27;;
42140;SDS011;27809;51.864;5.646;2023-05-07T13:51:18;10.48;;;7.30;;
42140;SDS011;27809;51.864;5.646;2023-05-07T13:53:43;10.75;;;7.40;;
42140;SDS011;27809;51.864;5.646;2023-05-07T13:56:09;13.57;;;7.93;;
42140;SDS011;27809;51.864;5.646;2023-05-07T13:58:35;9.98;;;7.68;;
42140;SDS011;27809;51.864;5.646;2023-05-07T14:01:01;9.88;;;6.80;;
42140;SDS011;27809;51.864;5.646;2023-05-07T14:03:27;8.85;;;7.30;;
42140;SDS011;27809;51.864;5.646;2023-05-07T14:05:52;8.57;;;6.28;;
42140;SDS011;27809;51.864;5.646;2023-05-07T14:08:18;8.10;;;6.80;;
42140;SDS011;27809;51.864;5.646;2023-05-07T14:10:44;10.88;;;7.10;;
42140;SDS011;27809;51.864;5.646;2023-05-07T14:13:11;8.63;;;6.70;;
42140;SDS011;27809;51.864;5.646;2023-05-07T14:15:36;9.00;;;6.60;;
42140;SDS011;27809;51.864;5.646;2023-05-07T14:18:02;6.70;;;5.75;;
42140;SDS011;27809;51.864;5.646;2023-05-07T14:20:28;11.80;;;6.88;;
42140;SDS011;27809;51.864;5.646;2023-05-07T14:22:55;10.70;;;5.15;;
42140;SDS011;27809;51.864;5.646;2023-05-07T14:25:20;8.05;;;5.22;;
42140;SDS011;27809;51.864;5.646;2023-05-07T14:27:46;5.63;;;3.88;;
42140;SDS011;27809;51.864;5.646;2023-05-07T14:30:12;11.48;;;5.10;;
42140;SDS011;27809;51.864;5.646;2023-05-07T14:32:37;8.00;;;4.90;;
42140;SDS011;27809;51.864;5.646;2023-05-07T14:35:03;6.28;;;4.88;;
42140;SDS011;27809;51.864;5.646;2023-05-07T14:37:29;9.07;;;5.53;;
42140;SDS011;27809;51.864;5.646;2023-05-07T14:39:55;4.63;;;2.55;;
42140;SDS011;27809;51.864;5.646;2023-05-07T14:42:20;1.88;;;1.00;;
42140;SDS011;27809;51.864;5.646;2023-05-07T14:44:46;0.50;;;0.40;;
42140;SDS011;27809;51.864;5.646;2023-05-07T14:47:13;0.88;;;0.30;;
42140;SDS011;27809;51.864;5.646;2023-05-07T14:49:40;4.18;;;0.50;;